パリ/シャルル・ド・ゴール の空港の天気 - METARとTAF

シャルル・ド・ゴール国際空港(パリ) ( LFPG / CDG ) - フランス Paris
飛行場実況気象(Metar)
観測時間01/23 06:30 CET (01/23 05:30 UTC)
風向・風速南 4m/s
視程10km以上
天気現象
少しの雲 雲底高度 760m
全天の8割程度の雲 雲底高度 910m
気温9℃
湿度76%
気圧1023hPa
METARLFPG 230530Z 19007KT 9999 FEW025 BKN030 09/05 Q1023 NOSIG
過去の天気等 Google飛行場航空写真 Wunderground天気予報

過去48時間のMETAR

飛行場予報(TAF)
発表時間: 1/23 06:00 CET (1/23 05:00 UTC)
予報対象時間: 23日7時 CET ~ 24日13時 CET
風向・風速南西 4m/s
視程10km以上
全天の8割程度の雲 雲底高度 910m
23日9時 CET ~ 23日11時 CET に徐々に
全天の8割程度の雲 雲底高度 180m
23日12時 CET ~ 24日11時 CET に 確率 40% で一時的に
視程4,000m
天気現象弱い雨霧雨
全天の8割程度の雲 雲底高度 120m
24日1時 CET ~ 24日6時 CET に 確率 30% で一時的に
視程2,000m
天気現象弱い霧雨 もや
全天の8割程度の雲 雲底高度 60m
24日8時 CET ~ 24日13時 CET に一時的に
風向・風速南西 8m/s 瞬間風速 13m/s
24日11時 CET ~ 24日13時 CET に徐々に
全天の8割程度の雲 雲底高度 490m
TAF LFPG 230500Z 2306/2412 22008KT 9999 BKN030
BECMG 2308/2310 BKN006
PROB40 TEMPO 2311/2410 4000 -RADZ BKN004
PROB30 TEMPO 2400/2405 2000 -DZ BR BKN002
TEMPO 2407/2412 22015G25KT
BECMG 2410/2412 BKN016 TX13/2412Z TN09/2306Z